sensor_id;sensor_type;location;lat;lon;timestamp;P1;durP1;ratioP1;P2;durP2;ratioP2
966;SDS011;56108;48.730;9.304;2022-12-07T00:00:14;10.32;;;9.25;;
966;SDS011;56108;48.730;9.304;2022-12-07T00:02:27;11.20;;;10.10;;
966;SDS011;56108;48.730;9.304;2022-12-07T00:04:35;9.70;;;8.80;;
966;SDS011;56108;48.730;9.304;2022-12-07T00:06:44;11.60;;;9.55;;
966;SDS011;56108;48.730;9.304;2022-12-07T00:08:53;11.70;;;9.50;;
966;SDS011;56108;48.730;9.304;2022-12-07T00:11:01;10.52;;;9.43;;
966;SDS011;56108;48.730;9.304;2022-12-07T00:13:10;10.70;;;9.60;;
966;SDS011;56108;48.730;9.304;2022-12-07T00:15:18;10.93;;;9.57;;
966;SDS011;56108;48.730;9.304;2022-12-07T00:17:28;13.05;;;9.77;;
966;SDS011;56108;48.730;9.304;2022-12-07T00:19:38;10.77;;;9.57;;
966;SDS011;56108;48.730;9.304;2022-12-07T00:21:45;9.65;;;8.70;;
966;SDS011;56108;48.730;9.304;2022-12-07T00:23:54;10.38;;;9.38;;
966;SDS011;56108;48.730;9.304;2022-12-07T00:26:04;9.93;;;8.93;;
966;SDS011;56108;48.730;9.304;2022-12-07T00:28:12;11.40;;;9.98;;
966;SDS011;56108;48.730;9.304;2022-12-07T00:30:21;11.52;;;10.32;;
966;SDS011;56108;48.730;9.304;2022-12-07T00:32:32;11.85;;;9.80;;
966;SDS011;56108;48.730;9.304;2022-12-07T00:34:40;10.57;;;9.57;;
966;SDS011;56108;48.730;9.304;2022-12-07T00:36:48;9.85;;;8.85;;
966;SDS011;56108;48.730;9.304;2022-12-07T00:38:57;10.35;;;9.30;;
966;SDS011;56108;48.730;9.304;2022-12-07T00:41:15;11.18;;;10.10;;
966;SDS011;56108;48.730;9.304;2022-12-07T00:43:42;10.75;;;9.70;;
966;SDS011;56108;48.730;9.304;2022-12-07T00:45:51;11.65;;;10.45;;
966;SDS011;56108;48.730;9.304;2022-12-07T00:48:06;9.60;;;8.60;;
966;SDS011;56108;48.730;9.304;2022-12-07T00:50:13;10.70;;;9.43;;
966;SDS011;56108;48.730;9.304;2022-12-07T00:52:23;11.05;;;9.20;;
966;SDS011;56108;48.730;9.304;2022-12-07T00:54:31;11.07;;;9.55;;
966;SDS011;56108;48.730;9.304;2022-12-07T00:56:39;10.50;;;9.00;;
966;SDS011;56108;48.730;9.304;2022-12-07T00:58:49;12.05;;;9.98;;
966;SDS011;56108;48.730;9.304;2022-12-07T01:00:59;10.43;;;9.32;;
966;SDS011;56108;48.730;9.304;2022-12-07T01:03:14;11.15;;;10.05;;
966;SDS011;56108;48.730;9.304;2022-12-07T01:05:23;11.07;;;9.95;;
966;SDS011;56108;48.730;9.304;2022-12-07T01:07:31;12.25;;;10.27;;
966;SDS011;56108;48.730;9.304;2022-12-07T01:09:39;11.48;;;9.70;;
966;SDS011;56108;48.730;9.304;2022-12-07T01:11:47;12.55;;;11.13;;
966;SDS011;56108;48.730;9.304;2022-12-07T01:13:55;11.43;;;10.30;;
966;SDS011;56108;48.730;9.304;2022-12-07T01:16:05;12.88;;;11.25;;
966;SDS011;56108;48.730;9.304;2022-12-07T01:18:16;13.90;;;10.93;;
966;SDS011;56108;48.730;9.304;2022-12-07T01:20:24;13.38;;;12.00;;
966;SDS011;56108;48.730;9.304;2022-12-07T01:22:36;12.15;;;10.75;;
966;SDS011;56108;48.730;9.304;2022-12-07T01:24:44;12.75;;;11.35;;
966;SDS011;56108;48.730;9.304;2022-12-07T01:26:53;13.40;;;11.45;;
966;SDS011;56108;48.730;9.304;2022-12-07T01:29:01;12.25;;;10.95;;
966;SDS011;56108;48.730;9.304;2022-12-07T01:31:10;13.10;;;11.73;;
966;SDS011;56108;48.730;9.304;2022-12-07T01:33:23;12.82;;;11.52;;
966;SDS011;56108;48.730;9.304;2022-12-07T01:35:33;13.48;;;12.02;;
966;SDS011;56108;48.730;9.304;2022-12-07T01:37:41;13.95;;;12.43;;
966;SDS011;56108;48.730;9.304;2022-12-07T01:39:49;14.30;;;11.95;;
966;SDS011;56108;48.730;9.304;2022-12-07T01:41:57;12.57;;;11.32;;
966;SDS011;56108;48.730;9.304;2022-12-07T01:44:21;14.80;;;11.43;;
966;SDS011;56108;48.730;9.304;2022-12-07T01:46:31;14.48;;;12.07;;
966;SDS011;56108;48.730;9.304;2022-12-07T01:48:42;13.27;;;11.88;;
966;SDS011;56108;48.730;9.304;2022-12-07T01:50:50;12.73;;;11.10;;
966;SDS011;56108;48.730;9.304;2022-12-07T01:53:02;14.63;;;11.63;;
966;SDS011;56108;48.730;9.304;2022-12-07T01:55:13;14.40;;;12.45;;
966;SDS011;56108;48.730;9.304;2022-12-07T01:57:22;12.15;;;10.85;;
966;SDS011;56108;48.730;9.304;2022-12-07T01:59:30;12.13;;;10.73;;
966;SDS011;56108;48.730;9.304;2022-12-07T02:01:38;13.65;;;11.25;;
966;SDS011;56108;48.730;9.304;2022-12-07T02:03:49;13.60;;;11.63;;
966;SDS011;56108;48.730;9.304;2022-12-07T02:05:57;16.05;;;13.52;;
966;SDS011;56108;48.730;9.304;2022-12-07T02:08:07;13.70;;;12.18;;
966;SDS011;56108;48.730;9.304;2022-12-07T02:10:17;13.68;;;11.73;;
966;SDS011;56108;48.730;9.304;2022-12-07T02:12:28;13.95;;;12.18;;
966;SDS011;56108;48.730;9.304;2022-12-07T02:14:35;15.90;;;11.63;;
966;SDS011;56108;48.730;9.304;2022-12-07T02:16:47;15.00;;;13.15;;
966;SDS011;56108;48.730;9.304;2022-12-07T02:19:14;15.27;;;12.80;;
966;SDS011;56108;48.730;9.304;2022-12-07T02:21:48;14.18;;;12.68;;
966;SDS011;56108;48.730;9.304;2022-12-07T02:24:05;13.30;;;11.80;;
966;SDS011;56108;48.730;9.304;2022-12-07T02:29:07;15.48;;;13.75;;
966;SDS011;56108;48.730;9.304;2022-12-07T02:31:20;15.23;;;12.77;;
966;SDS011;56108;48.730;9.304;2022-12-07T02:33:32;16.33;;;10.95;;
966;SDS011;56108;48.730;9.304;2022-12-07T02:35:43;12.52;;;11.23;;
966;SDS011;56108;48.730;9.304;2022-12-07T02:37:58;15.73;;;12.95;;
966;SDS011;56108;48.730;9.304;2022-12-07T02:40:14;14.10;;;12.70;;
966;SDS011;56108;48.730;9.304;2022-12-07T02:42:31;16.98;;;12.43;;
966;SDS011;56108;48.730;9.304;2022-12-07T02:44:47;13.40;;;11.95;;
966;SDS011;56108;48.730;9.304;2022-12-07T02:46:57;16.83;;;12.40;;
966;SDS011;56108;48.730;9.304;2022-12-07T02:49:08;15.55;;;11.63;;
966;SDS011;56108;48.730;9.304;2022-12-07T02:51:17;13.43;;;10.70;;
966;SDS011;56108;48.730;9.304;2022-12-07T02:53:28;15.75;;;12.60;;
966;SDS011;56108;48.730;9.304;2022-12-07T02:55:38;12.52;;;10.65;;
966;SDS011;56108;48.730;9.304;2022-12-07T02:57:53;14.73;;;11.90;;
966;SDS011;56108;48.730;9.304;2022-12-07T03:00:16;12.18;;;10.75;;
966;SDS011;56108;48.730;9.304;2022-12-07T03:02:29;12.68;;;11.20;;
966;SDS011;56108;48.730;9.304;2022-12-07T03:04:45;14.82;;;11.00;;
966;SDS011;56108;48.730;9.304;2022-12-07T03:07:09;12.23;;;10.00;;
966;SDS011;56108;48.730;9.304;2022-12-07T03:09:25;11.88;;;10.68;;
966;SDS011;56108;48.730;9.304;2022-12-07T03:11:39;12.02;;;10.50;;
966;SDS011;56108;48.730;9.304;2022-12-07T03:13:55;14.13;;;11.10;;
966;SDS011;56108;48.730;9.304;2022-12-07T03:16:13;12.77;;;10.50;;
966;SDS011;56108;48.730;9.304;2022-12-07T03:18:24;13.68;;;10.40;;
966;SDS011;56108;48.730;9.304;2022-12-07T03:20:35;12.82;;;9.88;;
966;SDS011;56108;48.730;9.304;2022-12-07T03:22:46;12.80;;;9.77;;
966;SDS011;56108;48.730;9.304;2022-12-07T03:24:56;12.68;;;10.63;;
966;SDS011;56108;48.730;9.304;2022-12-07T03:27:11;11.15;;;9.85;;
966;SDS011;56108;48.730;9.304;2022-12-07T03:29:24;11.52;;;10.30;;
966;SDS011;56108;48.730;9.304;2022-12-07T03:31:39;11.13;;;9.65;;
966;SDS011;56108;48.730;9.304;2022-12-07T03:33:53;11.65;;;9.23;;
966;SDS011;56108;48.730;9.304;2022-12-07T03:36:06;12.15;;;10.13;;
966;SDS011;56108;48.730;9.304;2022-12-07T03:38:19;12.20;;;10.18;;
966;SDS011;56108;48.730;9.304;2022-12-07T03:40:33;13.18;;;10.00;;
966;SDS011;56108;48.730;9.304;2022-12-07T03:42:44;12.13;;;10.82;;
966;SDS011;56108;48.730;9.304;2022-12-07T03:44:55;13.38;;;11.10;;
966;SDS011;56108;48.730;9.304;2022-12-07T03:47:06;13.63;;;10.50;;
966;SDS011;56108;48.730;9.304;2022-12-07T03:49:21;12.25;;;10.18;;
966;SDS011;56108;48.730;9.304;2022-12-07T03:51:34;13.05;;;10.82;;
966;SDS011;56108;48.730;9.304;2022-12-07T03:53:50;11.85;;;10.55;;
966;SDS011;56108;48.730;9.304;2022-12-07T03:56:04;15.50;;;11.00;;
966;SDS011;56108;48.730;9.304;2022-12-07T03:58:15;14.13;;;11.50;;
966;SDS011;56108;48.730;9.304;2022-12-07T04:00:26;12.82;;;11.18;;
966;SDS011;56108;48.730;9.304;2022-12-07T04:02:37;13.75;;;10.95;;
966;SDS011;56108;48.730;9.304;2022-12-07T04:04:46;12.75;;;10.05;;
966;SDS011;56108;48.730;9.304;2022-12-07T04:06:55;11.65;;;10.25;;
966;SDS011;56108;48.730;9.304;2022-12-07T04:09:04;11.82;;;10.25;;
966;SDS011;56108;48.730;9.304;2022-12-07T04:11:12;12.88;;;10.50;;
966;SDS011;56108;48.730;9.304;2022-12-07T04:13:20;12.50;;;11.20;;
966;SDS011;56108;48.730;9.304;2022-12-07T04:15:28;12.73;;;10.07;;
966;SDS011;56108;48.730;9.304;2022-12-07T04:17:38;13.75;;;11.10;;
966;SDS011;56108;48.730;9.304;2022-12-07T04:19:46;11.60;;;10.38;;
966;SDS011;56108;48.730;9.304;2022-12-07T04:21:55;12.15;;;10.70;;
966;SDS011;56108;48.730;9.304;2022-12-07T04:24:05;13.88;;;11.43;;
966;SDS011;56108;48.730;9.304;2022-12-07T04:26:14;12.40;;;10.82;;
966;SDS011;56108;48.730;9.304;2022-12-07T04:28:22;13.98;;;10.98;;
966;SDS011;56108;48.730;9.304;2022-12-07T04:30:30;15.77;;;11.75;;
966;SDS011;56108;48.730;9.304;2022-12-07T04:32:41;14.30;;;10.88;;
966;SDS011;56108;48.730;9.304;2022-12-07T04:34:49;17.40;;;12.95;;
966;SDS011;56108;48.730;9.304;2022-12-07T04:36:59;15.20;;;11.45;;
966;SDS011;56108;48.730;9.304;2022-12-07T04:39:12;13.20;;;11.45;;
966;SDS011;56108;48.730;9.304;2022-12-07T04:41:26;13.60;;;10.90;;
966;SDS011;56108;48.730;9.304;2022-12-07T04:43:35;16.17;;;12.18;;
966;SDS011;56108;48.730;9.304;2022-12-07T04:45:45;13.93;;;12.00;;
966;SDS011;56108;48.730;9.304;2022-12-07T04:47:57;14.20;;;11.93;;
966;SDS011;56108;48.730;9.304;2022-12-07T04:50:07;16.67;;;11.63;;
966;SDS011;56108;48.730;9.304;2022-12-07T04:52:17;15.25;;;13.27;;
966;SDS011;56108;48.730;9.304;2022-12-07T04:54:26;14.68;;;11.93;;
966;SDS011;56108;48.730;9.304;2022-12-07T04:56:34;17.42;;;13.40;;
966;SDS011;56108;48.730;9.304;2022-12-07T04:58:43;17.40;;;13.25;;
966;SDS011;56108;48.730;9.304;2022-12-07T05:00:53;16.17;;;13.48;;
966;SDS011;56108;48.730;9.304;2022-12-07T05:03:04;15.45;;;13.05;;
966;SDS011;56108;48.730;9.304;2022-12-07T05:05:12;15.70;;;14.13;;
966;SDS011;56108;48.730;9.304;2022-12-07T05:07:21;18.23;;;13.30;;
966;SDS011;56108;48.730;9.304;2022-12-07T05:09:29;16.48;;;14.55;;
966;SDS011;56108;48.730;9.304;2022-12-07T05:11:36;21.83;;;18.10;;
966;SDS011;56108;48.730;9.304;2022-12-07T05:13:47;17.33;;;14.95;;
966;SDS011;56108;48.730;9.304;2022-12-07T05:15:56;19.30;;;14.43;;
966;SDS011;56108;48.730;9.304;2022-12-07T05:18:07;16.27;;;13.18;;
966;SDS011;56108;48.730;9.304;2022-12-07T05:20:17;16.73;;;12.80;;
966;SDS011;56108;48.730;9.304;2022-12-07T05:22:25;17.35;;;14.60;;
966;SDS011;56108;48.730;9.304;2022-12-07T05:24:33;16.45;;;14.50;;
966;SDS011;56108;48.730;9.304;2022-12-07T05:26:41;19.40;;;15.60;;
966;SDS011;56108;48.730;9.304;2022-12-07T05:28:51;17.63;;;12.82;;
966;SDS011;56108;48.730;9.304;2022-12-07T05:30:59;18.17;;;15.10;;
966;SDS011;56108;48.730;9.304;2022-12-07T05:33:10;16.55;;;13.45;;
966;SDS011;56108;48.730;9.304;2022-12-07T05:35:18;18.02;;;12.70;;
966;SDS011;56108;48.730;9.304;2022-12-07T05:37:27;18.17;;;13.40;;
966;SDS011;56108;48.730;9.304;2022-12-07T05:39:35;16.45;;;13.05;;
966;SDS011;56108;48.730;9.304;2022-12-07T05:41:45;17.15;;;13.88;;
966;SDS011;56108;48.730;9.304;2022-12-07T05:44:05;15.55;;;13.63;;
966;SDS011;56108;48.730;9.304;2022-12-07T05:46:13;17.85;;;13.60;;
966;SDS011;56108;48.730;9.304;2022-12-07T05:48:25;16.67;;;14.18;;
966;SDS011;56108;48.730;9.304;2022-12-07T05:50:33;19.25;;;14.63;;
966;SDS011;56108;48.730;9.304;2022-12-07T05:52:41;16.45;;;13.30;;
966;SDS011;56108;48.730;9.304;2022-12-07T05:54:49;17.40;;;13.95;;
966;SDS011;56108;48.730;9.304;2022-12-07T05:56:57;18.85;;;14.45;;
966;SDS011;56108;48.730;9.304;2022-12-07T05:59:05;16.42;;;12.90;;
966;SDS011;56108;48.730;9.304;2022-12-07T06:01:26;18.95;;;13.40;;
966;SDS011;56108;48.730;9.304;2022-12-07T06:03:37;15.40;;;13.80;;
966;SDS011;56108;48.730;9.304;2022-12-07T06:05:44;16.58;;;12.65;;
966;SDS011;56108;48.730;9.304;2022-12-07T06:07:53;17.15;;;13.55;;
966;SDS011;56108;48.730;9.304;2022-12-07T06:10:09;14.68;;;12.82;;
966;SDS011;56108;48.730;9.304;2022-12-07T06:12:17;17.10;;;14.70;;
966;SDS011;56108;48.730;9.304;2022-12-07T06:14:38;15.50;;;13.52;;
966;SDS011;56108;48.730;9.304;2022-12-07T06:16:46;14.55;;;12.80;;
966;SDS011;56108;48.730;9.304;2022-12-07T06:18:57;15.50;;;12.90;;
966;SDS011;56108;48.730;9.304;2022-12-07T06:21:05;14.68;;;12.52;;
966;SDS011;56108;48.730;9.304;2022-12-07T06:23:13;18.88;;;13.43;;
966;SDS011;56108;48.730;9.304;2022-12-07T06:25:20;17.60;;;13.20;;
966;SDS011;56108;48.730;9.304;2022-12-07T06:27:29;16.98;;;13.45;;
966;SDS011;56108;48.730;9.304;2022-12-07T06:29:37;14.93;;;12.07;;
966;SDS011;56108;48.730;9.304;2022-12-07T06:31:46;14.93;;;12.10;;
966;SDS011;56108;48.730;9.304;2022-12-07T06:34:00;18.30;;;13.40;;
966;SDS011;56108;48.730;9.304;2022-12-07T06:36:09;18.85;;;14.77;;
966;SDS011;56108;48.730;9.304;2022-12-07T06:38:17;18.23;;;13.90;;
966;SDS011;56108;48.730;9.304;2022-12-07T06:40:25;14.52;;;12.77;;
966;SDS011;56108;48.730;9.304;2022-12-07T06:42:33;17.60;;;13.50;;
966;SDS011;56108;48.730;9.304;2022-12-07T06:44:42;15.15;;;12.35;;
966;SDS011;56108;48.730;9.304;2022-12-07T06:46:51;19.23;;;12.95;;
966;SDS011;56108;48.730;9.304;2022-12-07T06:49:22;18.40;;;13.95;;
966;SDS011;56108;48.730;9.304;2022-12-07T06:51:30;14.85;;;13.18;;
966;SDS011;56108;48.730;9.304;2022-12-07T06:53:39;16.45;;;14.25;;
966;SDS011;56108;48.730;9.304;2022-12-07T06:55:47;17.85;;;14.35;;
966;SDS011;56108;48.730;9.304;2022-12-07T06:57:55;21.50;;;13.68;;
966;SDS011;56108;48.730;9.304;2022-12-07T07:00:04;21.15;;;13.98;;
966;SDS011;56108;48.730;9.304;2022-12-07T07:02:21;15.77;;;13.40;;
966;SDS011;56108;48.730;9.304;2022-12-07T07:04:32;16.08;;;12.73;;
966;SDS011;56108;48.730;9.304;2022-12-07T07:06:40;15.52;;;13.70;;
966;SDS011;56108;48.730;9.304;2022-12-07T07:08:48;20.63;;;16.38;;
966;SDS011;56108;48.730;9.304;2022-12-07T07:10:56;17.88;;;14.05;;
966;SDS011;56108;48.730;9.304;2022-12-07T07:13:05;13.70;;;12.20;;
966;SDS011;56108;48.730;9.304;2022-12-07T07:15:15;19.20;;;13.48;;
966;SDS011;56108;48.730;9.304;2022-12-07T07:17:23;17.50;;;14.10;;
966;SDS011;56108;48.730;9.304;2022-12-07T07:19:34;15.48;;;12.45;;
966;SDS011;56108;48.730;9.304;2022-12-07T07:21:42;16.08;;;13.23;;
966;SDS011;56108;48.730;9.304;2022-12-07T07:23:50;16.33;;;12.70;;
966;SDS011;56108;48.730;9.304;2022-12-07T07:25:58;17.05;;;14.05;;
966;SDS011;56108;48.730;9.304;2022-12-07T07:28:06;14.32;;;12.20;;
966;SDS011;56108;48.730;9.304;2022-12-07T07:30:16;14.70;;;12.65;;
966;SDS011;56108;48.730;9.304;2022-12-07T07:32:25;16.40;;;12.52;;
966;SDS011;56108;48.730;9.304;2022-12-07T07:34:36;13.80;;;11.73;;
966;SDS011;56108;48.730;9.304;2022-12-07T07:36:44;13.68;;;11.30;;
966;SDS011;56108;48.730;9.304;2022-12-07T07:38:52;13.45;;;12.05;;
966;SDS011;56108;48.730;9.304;2022-12-07T07:40:59;14.00;;;11.73;;
966;SDS011;56108;48.730;9.304;2022-12-07T07:43:10;11.52;;;10.32;;
966;SDS011;56108;48.730;9.304;2022-12-07T07:45:18;12.90;;;11.50;;
966;SDS011;56108;48.730;9.304;2022-12-07T07:47:27;12.13;;;10.63;;
966;SDS011;56108;48.730;9.304;2022-12-07T07:49:38;14.07;;;11.43;;
966;SDS011;56108;48.730;9.304;2022-12-07T07:51:52;11.40;;;10.05;;
966;SDS011;56108;48.730;9.304;2022-12-07T07:54:00;13.25;;;11.43;;
966;SDS011;56108;48.730;9.304;2022-12-07T07:56:09;15.27;;;11.25;;
966;SDS011;56108;48.730;9.304;2022-12-07T07:58:18;11.73;;;10.10;;
966;SDS011;56108;48.730;9.304;2022-12-07T08:00:26;11.68;;;9.98;;
966;SDS011;56108;48.730;9.304;2022-12-07T08:02:34;13.30;;;11.38;;
966;SDS011;56108;48.730;9.304;2022-12-07T08:04:45;11.63;;;10.43;;
966;SDS011;56108;48.730;9.304;2022-12-07T08:06:56;12.27;;;11.02;;
966;SDS011;56108;48.730;9.304;2022-12-07T08:09:04;12.73;;;11.00;;
966;SDS011;56108;48.730;9.304;2022-12-07T08:11:12;12.20;;;10.90;;
966;SDS011;56108;48.730;9.304;2022-12-07T08:13:20;11.35;;;9.75;;
966;SDS011;56108;48.730;9.304;2022-12-07T08:15:36;13.38;;;11.10;;
966;SDS011;56108;48.730;9.304;2022-12-07T08:17:45;12.25;;;10.30;;
966;SDS011;56108;48.730;9.304;2022-12-07T08:19:56;14.25;;;11.98;;
966;SDS011;56108;48.730;9.304;2022-12-07T08:22:05;13.20;;;11.80;;
966;SDS011;56108;48.730;9.304;2022-12-07T08:24:13;11.82;;;10.43;;
966;SDS011;56108;48.730;9.304;2022-12-07T08:26:21;13.15;;;11.77;;
966;SDS011;56108;48.730;9.304;2022-12-07T08:28:29;12.80;;;11.20;;
966;SDS011;56108;48.730;9.304;2022-12-07T08:30:37;13.20;;;11.60;;
966;SDS011;56108;48.730;9.304;2022-12-07T08:32:47;15.05;;;11.65;;
966;SDS011;56108;48.730;9.304;2022-12-07T08:34:59;11.25;;;10.10;;
966;SDS011;56108;48.730;9.304;2022-12-07T08:37:07;13.10;;;10.65;;
966;SDS011;56108;48.730;9.304;2022-12-07T08:39:16;13.93;;;11.00;;
966;SDS011;56108;48.730;9.304;2022-12-07T08:41:35;13.57;;;11.27;;
966;SDS011;56108;48.730;9.304;2022-12-07T08:43:45;11.80;;;10.60;;
966;SDS011;56108;48.730;9.304;2022-12-07T08:45:53;11.90;;;10.07;;
966;SDS011;56108;48.730;9.304;2022-12-07T08:48:12;14.18;;;10.57;;
966;SDS011;56108;48.730;9.304;2022-12-07T08:50:29;13.13;;;10.90;;
966;SDS011;56108;48.730;9.304;2022-12-07T08:52:38;10.80;;;9.73;;
966;SDS011;56108;48.730;9.304;2022-12-07T08:54:48;12.57;;;10.43;;
966;SDS011;56108;48.730;9.304;2022-12-07T08:56:56;10.70;;;9.45;;
966;SDS011;56108;48.730;9.304;2022-12-07T08:59:05;9.60;;;8.70;;
966;SDS011;56108;48.730;9.304;2022-12-07T09:01:13;9.55;;;8.65;;
966;SDS011;56108;48.730;9.304;2022-12-07T09:03:21;11.10;;;8.90;;
966;SDS011;56108;48.730;9.304;2022-12-07T09:05:32;10.18;;;9.18;;
966;SDS011;56108;48.730;9.304;2022-12-07T09:07:41;9.57;;;8.57;;
966;SDS011;56108;48.730;9.304;2022-12-07T09:09:50;9.50;;;8.60;;
966;SDS011;56108;48.730;9.304;2022-12-07T09:11:58;9.13;;;7.95;;
966;SDS011;56108;48.730;9.304;2022-12-07T09:14:06;8.98;;;8.07;;
966;SDS011;56108;48.730;9.304;2022-12-07T09:16:16;9.50;;;8.60;;
966;SDS011;56108;48.730;9.304;2022-12-07T09:18:25;9.50;;;8.55;;
966;SDS011;56108;48.730;9.304;2022-12-07T09:20:35;10.00;;;9.02;;
966;SDS011;56108;48.730;9.304;2022-12-07T09:22:44;9.70;;;8.50;;
966;SDS011;56108;48.730;9.304;2022-12-07T09:24:53;10.00;;;9.00;;
966;SDS011;56108;48.730;9.304;2022-12-07T09:27:00;9.95;;;8.93;;
966;SDS011;56108;48.730;9.304;2022-12-07T09:29:09;9.50;;;8.50;;
966;SDS011;56108;48.730;9.304;2022-12-07T09:31:17;9.32;;;7.72;;
966;SDS011;56108;48.730;9.304;2022-12-07T09:33:28;9.40;;;8.43;;
966;SDS011;56108;48.730;9.304;2022-12-07T09:35:39;10.20;;;8.80;;
966;SDS011;56108;48.730;9.304;2022-12-07T09:37:51;9.10;;;8.20;;
966;SDS011;56108;48.730;9.304;2022-12-07T09:39:59;9.45;;;7.90;;
966;SDS011;56108;48.730;9.304;2022-12-07T09:42:08;8.32;;;7.53;;
966;SDS011;56108;48.730;9.304;2022-12-07T09:44:23;10.00;;;8.20;;
966;SDS011;56108;48.730;9.304;2022-12-07T09:46:35;8.88;;;7.82;;
966;SDS011;56108;48.730;9.304;2022-12-07T09:48:46;8.90;;;8.07;;
966;SDS011;56108;48.730;9.304;2022-12-07T09:51:00;11.35;;;8.43;;
966;SDS011;56108;48.730;9.304;2022-12-07T09:53:13;10.10;;;8.60;;
966;SDS011;56108;48.730;9.304;2022-12-07T09:55:28;9.68;;;8.55;;
966;SDS011;56108;48.730;9.304;2022-12-07T09:57:36;9.15;;;8.07;;
966;SDS011;56108;48.730;9.304;2022-12-07T09:59:45;10.55;;;8.60;;
966;SDS011;56108;48.730;9.304;2022-12-07T10:01:53;9.13;;;7.63;;
966;SDS011;56108;48.730;9.304;2022-12-07T10:04:08;8.90;;;8.00;;
966;SDS011;56108;48.730;9.304;2022-12-07T10:06:23;10.43;;;8.18;;
966;SDS011;56108;48.730;9.304;2022-12-07T10:08:32;9.70;;;8.48;;
966;SDS011;56108;48.730;9.304;2022-12-07T10:10:40;11.05;;;8.50;;
966;SDS011;56108;48.730;9.304;2022-12-07T10:12:56;8.88;;;7.97;;
966;SDS011;56108;48.730;9.304;2022-12-07T10:15:06;9.23;;;7.65;;
966;SDS011;56108;48.730;9.304;2022-12-07T10:17:26;8.20;;;7.40;;
966;SDS011;56108;48.730;9.304;2022-12-07T10:19:37;10.13;;;7.97;;
966;SDS011;56108;48.730;9.304;2022-12-07T10:24:16;8.88;;;7.97;;
966;SDS011;56108;48.730;9.304;2022-12-07T10:26:29;10.25;;;7.60;;
966;SDS011;56108;48.730;9.304;2022-12-07T10:28:40;9.20;;;8.10;;
966;SDS011;56108;48.730;9.304;2022-12-07T10:30:55;11.43;;;7.13;;
966;SDS011;56108;48.730;9.304;2022-12-07T10:33:15;8.32;;;7.38;;
966;SDS011;56108;48.730;9.304;2022-12-07T10:35:36;11.05;;;9.40;;
966;SDS011;56108;48.730;9.304;2022-12-07T10:37:55;8.05;;;7.22;;
966;SDS011;56108;48.730;9.304;2022-12-07T10:40:18;7.30;;;6.57;;
966;SDS011;56108;48.730;9.304;2022-12-07T10:42:32;9.55;;;7.38;;
966;SDS011;56108;48.730;9.304;2022-12-07T10:44:40;8.20;;;7.35;;
966;SDS011;56108;48.730;9.304;2022-12-07T10:47:00;7.20;;;6.50;;
966;SDS011;56108;48.730;9.304;2022-12-07T10:49:31;6.68;;;6.05;;
966;SDS011;56108;48.730;9.304;2022-12-07T10:51:56;7.47;;;6.60;;
966;SDS011;56108;48.730;9.304;2022-12-07T10:54:15;8.38;;;7.10;;
966;SDS011;56108;48.730;9.304;2022-12-07T10:56:42;6.95;;;6.28;;
966;SDS011;56108;48.730;9.304;2022-12-07T10:59:04;8.15;;;6.88;;
966;SDS011;56108;48.730;9.304;2022-12-07T11:01:29;9.18;;;6.50;;
966;SDS011;56108;48.730;9.304;2022-12-07T11:03:46;7.22;;;6.53;;
966;SDS011;56108;48.730;9.304;2022-12-07T11:06:04;8.65;;;6.40;;
966;SDS011;56108;48.730;9.304;2022-12-07T11:08:33;8.77;;;7.22;;
966;SDS011;56108;48.730;9.304;2022-12-07T11:10:53;15.00;;;7.95;;
966;SDS011;56108;48.730;9.304;2022-12-07T11:13:16;7.72;;;6.95;;
966;SDS011;56108;48.730;9.304;2022-12-07T11:15:35;9.65;;;6.68;;
966;SDS011;56108;48.730;9.304;2022-12-07T11:17:55;7.63;;;6.82;;
966;SDS011;56108;48.730;9.304;2022-12-07T11:20:13;10.00;;;6.95;;
966;SDS011;56108;48.730;9.304;2022-12-07T11:22:36;8.73;;;6.25;;
966;SDS011;56108;48.730;9.304;2022-12-07T11:24:57;8.18;;;7.28;;
966;SDS011;56108;48.730;9.304;2022-12-07T11:27:27;8.98;;;7.90;;
966;SDS011;56108;48.730;9.304;2022-12-07T11:29:49;8.85;;;7.95;;
966;SDS011;56108;48.730;9.304;2022-12-07T11:32:22;9.73;;;7.35;;
966;SDS011;56108;48.730;9.304;2022-12-07T11:34:44;13.40;;;8.75;;
966;SDS011;56108;48.730;9.304;2022-12-07T11:37:01;10.95;;;8.05;;
966;SDS011;56108;48.730;9.304;2022-12-07T11:39:15;11.07;;;6.68;;
966;SDS011;56108;48.730;9.304;2022-12-07T11:41:35;7.95;;;6.00;;
966;SDS011;56108;48.730;9.304;2022-12-07T11:43:53;11.35;;;9.70;;
966;SDS011;56108;48.730;9.304;2022-12-07T11:46:07;6.95;;;6.25;;
966;SDS011;56108;48.730;9.304;2022-12-07T11:48:20;6.78;;;5.63;;
966;SDS011;56108;48.730;9.304;2022-12-07T11:50:33;8.88;;;7.97;;
966;SDS011;56108;48.730;9.304;2022-12-07T11:52:47;14.57;;;9.65;;
966;SDS011;56108;48.730;9.304;2022-12-07T11:54:59;11.50;;;9.98;;
966;SDS011;56108;48.730;9.304;2022-12-07T11:57:10;9.02;;;8.05;;
966;SDS011;56108;48.730;9.304;2022-12-07T11:59:29;8.07;;;7.28;;
966;SDS011;56108;48.730;9.304;2022-12-07T12:01:44;8.48;;;6.57;;
966;SDS011;56108;48.730;9.304;2022-12-07T12:04:02;10.80;;;6.82;;
966;SDS011;56108;48.730;9.304;2022-12-07T12:06:21;7.70;;;6.90;;
966;SDS011;56108;48.730;9.304;2022-12-07T12:08:30;9.18;;;6.60;;
966;SDS011;56108;48.730;9.304;2022-12-07T12:11:08;7.88;;;7.07;;
966;SDS011;56108;48.730;9.304;2022-12-07T12:13:37;7.05;;;6.20;;
966;SDS011;56108;48.730;9.304;2022-12-07T12:16:32;7.75;;;6.75;;
966;SDS011;56108;48.730;9.304;2022-12-07T12:18:58;7.15;;;6.35;;
966;SDS011;56108;48.730;9.304;2022-12-07T12:21:19;7.00;;;6.10;;
966;SDS011;56108;48.730;9.304;2022-12-07T12:23:33;6.25;;;5.38;;
966;SDS011;56108;48.730;9.304;2022-12-07T12:25:44;8.50;;;6.90;;
966;SDS011;56108;48.730;9.304;2022-12-07T12:27:54;12.93;;;11.25;;
966;SDS011;56108;48.730;9.304;2022-12-07T12:30:06;16.45;;;8.35;;
966;SDS011;56108;48.730;9.304;2022-12-07T12:32:37;7.80;;;6.72;;
966;SDS011;56108;48.730;9.304;2022-12-07T12:34:58;6.70;;;6.00;;
966;SDS011;56108;48.730;9.304;2022-12-07T12:42:54;5.20;;;4.40;;
966;SDS011;56108;48.730;9.304;2022-12-07T12:50:15;6.25;;;5.65;;
966;SDS011;56108;48.730;9.304;2022-12-07T12:55:02;7.13;;;6.50;;
966;SDS011;56108;48.730;9.304;2022-12-07T12:57:24;7.72;;;7.03;;
966;SDS011;56108;48.730;9.304;2022-12-07T12:59:35;7.78;;;6.55;;
966;SDS011;56108;48.730;9.304;2022-12-07T13:01:45;8.05;;;7.25;;
966;SDS011;56108;48.730;9.304;2022-12-07T13:03:57;7.20;;;6.50;;
966;SDS011;56108;48.730;9.304;2022-12-07T13:06:19;8.20;;;6.97;;
966;SDS011;56108;48.730;9.304;2022-12-07T13:08:40;8.32;;;7.53;;
966;SDS011;56108;48.730;9.304;2022-12-07T13:10:49;8.35;;;7.45;;
966;SDS011;56108;48.730;9.304;2022-12-07T13:12:59;8.30;;;7.50;;
966;SDS011;56108;48.730;9.304;2022-12-07T13:20:08;9.18;;;7.63;;
966;SDS011;56108;48.730;9.304;2022-12-07T13:24:49;9.00;;;8.10;;
966;SDS011;56108;48.730;9.304;2022-12-07T13:27:02;9.98;;;8.32;;
966;SDS011;56108;48.730;9.304;2022-12-07T13:29:15;10.18;;;7.95;;
966;SDS011;56108;48.730;9.304;2022-12-07T13:31:32;8.20;;;7.40;;
966;SDS011;56108;48.730;9.304;2022-12-07T13:33:42;7.28;;;6.57;;
966;SDS011;56108;48.730;9.304;2022-12-07T13:35:56;7.70;;;6.95;;
966;SDS011;56108;48.730;9.304;2022-12-07T13:38:05;7.43;;;6.63;;
966;SDS011;56108;48.730;9.304;2022-12-07T13:40:25;7.65;;;6.15;;
966;SDS011;56108;48.730;9.304;2022-12-07T13:42:34;7.25;;;6.47;;
966;SDS011;56108;48.730;9.304;2022-12-07T13:44:42;7.03;;;6.43;;
966;SDS011;56108;48.730;9.304;2022-12-07T13:46:56;7.07;;;6.38;;
966;SDS011;56108;48.730;9.304;2022-12-07T13:49:15;7.40;;;6.70;;
966;SDS011;56108;48.730;9.304;2022-12-07T13:51:33;9.00;;;6.95;;